Terminal Aerodrome Forecast
Issued by NWS Austin/San Antonio, TX

Home | Current Version | Previous Version | Text Only | Print | Product List | Glossary On
Versions: 1 2 3 4 5 6 7 8 9 10 11 12 13 14 15 16 17 18 19 20 21 22 23
000
FTUS44 KEWX 221100
TAFDRT
TAF
KDRT 221136Z 2212/2312 09007KT 6SM BR SCT025 BKN060
      TEMPO 2212/2214 5SM BR BKN025
     FM221600 13008KT P6SM FEW025 BKN060
     FM230100 09006KT P6SM BKN070 BKN200=

USA.gov is the U.S. government's official web portal to all federal, state and local government web resources and services.